»·PEaware :: UPS363 KSAN-KLAS

UPS363 :: KSAN-KLAS

FLIGHT INFORMATION

Flight Status: Arrived
Operator:
United Parcel Service
More flights by this operator :: More flights under this callsign
Pilot: Perry D. (5109)
Aircraft: Unknown
(B77F)
More flights by this aircraft type
Origin: KSAN San Diego Intl-Lindbergh
United States
Destination: KLAS McCarran Intl
United States
More flights between these airports :: More routes between these airports
Route: +PEBLE4 SXC LAX DAG KEPEC3
File this flight plan on PilotEdge
Remarks:
Altitude:
(Current/Filed)
25,000ft
Speed:
(Current/Filed)
450kts
Departed: 28-Jan-15 08:16 PM
Arrived: 28-Jan-15 09:36 PM
Distance/Time
Traveled:
224nm/1:20
Distance/Time
To Go:
Arrived

Flight Plot

Page will automatically refresh every two minutes.


Map Options




Map Legend


Flown Route
Filed Route
Departure Airport
Arrival Airport
Navaid (VOR, NDB)
Fix

Horizontal Profiles

Position Reports

Time Latitude Longitude Heading Altitude Ground
Speed
28-Jan-15 19:55 32.732851 -117.195298 274 34ft 0kts
28-Jan-15 19:56 32.732851 -117.195298 274 34ft 0kts
28-Jan-15 19:57 32.732851 -117.195298 274 34ft 0kts
28-Jan-15 19:58 32.732851 -117.195298 274 34ft 0kts
28-Jan-15 19:59 32.732851 -117.195298 274 34ft 0kts
28-Jan-15 20:00 32.732851 -117.195298 274 34ft 0kts
28-Jan-15 20:01 32.732851 -117.195298 274 34ft 0kts
28-Jan-15 20:02 32.732851 -117.195298 274 34ft 0kts
28-Jan-15 20:03 32.732851 -117.195298 274 34ft 0kts
28-Jan-15 20:04 32.732851 -117.195298 274 34ft 0kts
28-Jan-15 20:05 32.732851 -117.195298 274 34ft 0kts
28-Jan-15 20:06 32.732562 -117.193859 69 34ft 20kts
28-Jan-15 20:07 32.732205 -117.188294 104 34ft 26kts
28-Jan-15 20:08 32.731083 -117.183588 105 34ft 23kts
28-Jan-15 20:09 32.729864 -117.178651 106 34ft 20kts
28-Jan-15 20:10 32.730469 -117.176875 287 34ft 12kts
28-Jan-15 20:11 32.733796 -117.190513 286 88ft 186kts
28-Jan-15 20:12 32.749742 -117.229267 303 2874ft 252kts
28-Jan-15 20:13 32.777818 -117.281101 304 7732ft 264kts
28-Jan-15 20:14 32.816766 -117.351142 304 12510ft 280kts
28-Jan-15 20:15 32.853303 -117.416884 304 14956ft 297kts
28-Jan-15 20:16 32.898116 -117.469622 329 15040ft 306kts
28-Jan-15 20:17 32.967876 -117.521910 327 16832ft 372kts
28-Jan-15 20:18 33.023523 -117.587059 305 19574ft 384kts
28-Jan-15 20:19 33.088622 -117.692655 306 22507ft 415kts
28-Jan-15 20:20 33.155861 -117.796155 307 24958ft 431kts
28-Jan-15 20:21 33.210079 -117.921448 292 24989ft 434kts
28-Jan-15 20:22 33.254652 -118.055178 291 25020ft 439kts
28-Jan-15 20:23 33.323427 -118.167427 342 25039ft 438kts
28-Jan-15 20:24 33.442901 -118.166234 3 25001ft 433kts
28-Jan-15 20:25 33.561033 -118.157276 3 24987ft 429kts
28-Jan-15 20:26 33.623694 -118.151710 3 24984ft 431kts
28-Jan-15 20:27 33.682723 -118.139755 24 24972ft 431kts
28-Jan-15 20:28 33.728256 -118.103308 33 24987ft 434kts
28-Jan-15 20:29 33.771319 -118.067551 33 24981ft 432kts
28-Jan-15 20:30 33.814476 -118.031896 33 24977ft 430kts
28-Jan-15 20:31 33.855781 -117.998320 33 24975ft 432kts
28-Jan-15 20:32 33.903250 -117.960083 33 24972ft 434kts
28-Jan-15 20:33 33.949082 -117.923233 33 24971ft 435kts
28-Jan-15 20:34 33.993324 -117.887113 37 24978ft 434kts
28-Jan-15 20:35 34.028095 -117.845642 51 24982ft 433kts
28-Jan-15 20:36 34.063086 -117.795587 48 24997ft 433kts
28-Jan-15 20:37 34.094185 -117.752654 48 25000ft 431kts
28-Jan-15 20:38 34.126170 -117.708738 48 24999ft 429kts
28-Jan-15 20:39 34.153197 -117.672011 48 25000ft 429kts
28-Jan-15 20:40 34.185792 -117.628127 48 25000ft 430kts
28-Jan-15 20:41 34.220095 -117.582164 48 25000ft 429kts
28-Jan-15 20:42 34.257652 -117.531628 48 25005ft 427kts
28-Jan-15 20:43 34.293589 -117.482892 48 25029ft 426kts
28-Jan-15 20:44 34.337375 -117.423274 48 25056ft 426kts
28-Jan-15 20:45 34.389970 -117.351863 48 25008ft 427kts
28-Jan-15 20:46 34.468949 -117.244404 48 24995ft 426kts
28-Jan-15 20:47 34.547283 -117.137449 48 25007ft 427kts
28-Jan-15 20:48 34.613552 -117.047661 48 24955ft 404kts
28-Jan-15 20:49 34.685592 -116.950086 48 23107ft 383kts
28-Jan-15 20:50 34.755667 -116.855552 48 20973ft 372kts
28-Jan-15 20:51 34.824296 -116.764627 47 18899ft 360kts
28-Jan-15 20:52 34.891643 -116.676491 48 16851ft 350kts
28-Jan-15 20:53 34.955803 -116.590861 45 14839ft 340kts
28-Jan-15 20:54 35.020083 -116.509139 46 13050ft 333kts
28-Jan-15 20:55 35.083612 -116.427824 45 13011ft 331kts
28-Jan-15 20:56 35.147173 -116.347739 44 13010ft 331kts
28-Jan-15 20:57 35.211370 -116.267264 44 13009ft 331kts
28-Jan-15 20:58 35.275284 -116.186947 44 13010ft 331kts
28-Jan-15 20:59 35.339366 -116.106226 44 13010ft 332kts
28-Jan-15 21:00 35.403585 -116.025134 44 13010ft 332kts
28-Jan-15 21:01 35.467842 -115.943795 44 13010ft 332kts
28-Jan-15 21:02 35.532238 -115.862459 45 13017ft 335kts
28-Jan-15 21:03 35.596280 -115.781175 46 13026ft 326kts
28-Jan-15 21:04 35.648133 -115.715100 46 13029ft 311kts
28-Jan-15 21:05 35.717453 -115.626468 47 13049ft 308kts
28-Jan-15 21:06 35.774087 -115.575701 10 13057ft 311kts
28-Jan-15 21:07 35.860440 -115.569835 2 13046ft 311kts
28-Jan-15 21:08 35.936962 -115.565400 4 13016ft 299kts
28-Jan-15 21:09 35.991498 -115.497087 67 12998ft 301kts
28-Jan-15 21:10 36.021567 -115.405074 68 11794ft 274kts
28-Jan-15 21:11 36.026605 -115.318740 95 10592ft 256kts
28-Jan-15 21:12 36.020835 -115.234878 96 9038ft 245kts
28-Jan-15 21:13 36.015233 -115.154836 95 8736ft 231kts
28-Jan-15 21:14 36.010420 -115.076671 88 8047ft 232kts
28-Jan-15 21:15 36.010840 -114.997195 87 8048ft 236kts
28-Jan-15 21:16 36.007530 -114.916535 94 8039ft 237kts
28-Jan-15 21:17 36.000892 -114.836151 96 8039ft 237kts
28-Jan-15 21:18 35.993806 -114.755714 96 8031ft 228kts
28-Jan-15 21:19 35.987028 -114.679839 96 8068ft 225kts
28-Jan-15 21:20 35.997331 -114.610954 26 7910ft 200kts
28-Jan-15 21:21 36.048896 -114.601809 347 6442ft 187kts
28-Jan-15 21:22 36.066934 -114.654229 276 5448ft 185kts
28-Jan-15 21:23 36.072238 -114.716264 275 5440ft 184kts
28-Jan-15 21:24 36.070999 -114.778275 267 5437ft 184kts
28-Jan-15 21:25 36.068476 -114.840040 267 5433ft 184kts
28-Jan-15 21:26 36.065889 -114.901265 267 4549ft 181kts
28-Jan-15 21:27 36.064651 -114.962652 274 4499ft 182kts
28-Jan-15 21:28 36.071260 -115.021700 279 4160ft 156kts
28-Jan-15 21:29 36.073524 -115.073171 269 2661ft 165kts
28-Jan-15 21:30 36.073609 -115.125786 269 2169ft 158kts
28-Jan-15 21:31 36.074142 -115.149220 292 2158ft 5kts
28-Jan-15 21:32 36.074387 -115.149916 294 2158ft 15kts
28-Jan-15 21:33 36.077964 -115.154575 270 2158ft 28kts
28-Jan-15 21:34 36.078023 -115.163647 270 2158ft 0kts
28-Jan-15 21:35 36.078501 -115.170701 323 2158ft 12kts

Navigation Log

Ident Type
Flight plan parsing failed, navigation log unavailable